sensor_id;sensor_type;location;lat;lon;timestamp;P1;durP1;ratioP1;P2;durP2;ratioP2
75362;SDS011;64122;51.988;5.892;2022-12-07T00:02:43;9.25;;;4.78;;
75362;SDS011;64122;51.988;5.892;2022-12-07T00:05:12;11.00;;;3.88;;
75362;SDS011;64122;51.988;5.892;2022-12-07T00:07:41;9.90;;;4.10;;
75362;SDS011;64122;51.988;5.892;2022-12-07T00:10:10;11.32;;;3.90;;
75362;SDS011;64122;51.988;5.892;2022-12-07T00:12:42;10.32;;;4.13;;
75362;SDS011;64122;51.988;5.892;2022-12-07T00:15:12;9.40;;;4.00;;
75362;SDS011;64122;51.988;5.892;2022-12-07T00:17:41;8.15;;;3.42;;
75362;SDS011;64122;51.988;5.892;2022-12-07T00:20:10;12.85;;;4.30;;
75362;SDS011;64122;51.988;5.892;2022-12-07T00:22:39;9.77;;;3.60;;
75362;SDS011;64122;51.988;5.892;2022-12-07T00:25:09;10.15;;;3.50;;
75362;SDS011;64122;51.988;5.892;2022-12-07T00:27:38;8.50;;;3.67;;
75362;SDS011;64122;51.988;5.892;2022-12-07T00:30:10;6.97;;;3.13;;
75362;SDS011;64122;51.988;5.892;2022-12-07T00:32:40;9.18;;;3.20;;
75362;SDS011;64122;51.988;5.892;2022-12-07T00:35:09;7.88;;;3.10;;
75362;SDS011;64122;51.988;5.892;2022-12-07T00:37:38;6.50;;;3.80;;
75362;SDS011;64122;51.988;5.892;2022-12-07T00:40:08;7.78;;;3.00;;
75362;SDS011;64122;51.988;5.892;2022-12-07T00:42:38;8.60;;;3.75;;
75362;SDS011;64122;51.988;5.892;2022-12-07T00:45:10;8.10;;;3.70;;
75362;SDS011;64122;51.988;5.892;2022-12-07T00:47:39;7.90;;;3.15;;
75362;SDS011;64122;51.988;5.892;2022-12-07T00:50:09;10.05;;;3.88;;
75362;SDS011;64122;51.988;5.892;2022-12-07T00:52:38;6.82;;;3.40;;
75362;SDS011;64122;51.988;5.892;2022-12-07T00:55:14;8.75;;;3.42;;
75362;SDS011;64122;51.988;5.892;2022-12-07T00:57:44;10.32;;;4.35;;
75362;SDS011;64122;51.988;5.892;2022-12-07T01:00:16;12.57;;;4.13;;
75362;SDS011;64122;51.988;5.892;2022-12-07T01:02:45;9.80;;;3.63;;
75362;SDS011;64122;51.988;5.892;2022-12-07T01:05:15;7.90;;;3.28;;
75362;SDS011;64122;51.988;5.892;2022-12-07T01:07:44;7.97;;;3.67;;
75362;SDS011;64122;51.988;5.892;2022-12-07T01:10:14;9.60;;;3.60;;
75362;SDS011;64122;51.988;5.892;2022-12-07T01:12:43;7.10;;;3.38;;
75362;SDS011;64122;51.988;5.892;2022-12-07T01:15:12;11.00;;;3.80;;
75362;SDS011;64122;51.988;5.892;2022-12-07T01:17:44;11.75;;;4.10;;
75362;SDS011;64122;51.988;5.892;2022-12-07T01:20:14;9.07;;;4.05;;
75362;SDS011;64122;51.988;5.892;2022-12-07T01:22:43;10.10;;;3.92;;
75362;SDS011;64122;51.988;5.892;2022-12-07T01:25:13;8.52;;;4.15;;
75362;SDS011;64122;51.988;5.892;2022-12-07T01:27:42;11.43;;;4.32;;
75362;SDS011;64122;51.988;5.892;2022-12-07T01:30:12;12.55;;;3.75;;
75362;SDS011;64122;51.988;5.892;2022-12-07T01:32:44;10.07;;;3.80;;
75362;SDS011;64122;51.988;5.892;2022-12-07T01:35:14;14.23;;;4.75;;
75362;SDS011;64122;51.988;5.892;2022-12-07T01:37:43;12.75;;;4.13;;
75362;SDS011;64122;51.988;5.892;2022-12-07T01:40:12;11.07;;;4.35;;
75362;SDS011;64122;51.988;5.892;2022-12-07T01:42:41;8.35;;;3.85;;
75362;SDS011;64122;51.988;5.892;2022-12-07T01:45:22;11.90;;;3.75;;
75362;SDS011;64122;51.988;5.892;2022-12-07T01:48:09;9.25;;;3.95;;
75362;SDS011;64122;51.988;5.892;2022-12-07T01:50:41;10.88;;;4.30;;
75362;SDS011;64122;51.988;5.892;2022-12-07T01:53:13;8.18;;;3.80;;
75362;SDS011;64122;51.988;5.892;2022-12-07T01:55:44;11.02;;;4.65;;
75362;SDS011;64122;51.988;5.892;2022-12-07T01:58:14;8.10;;;4.07;;
75362;SDS011;64122;51.988;5.892;2022-12-07T02:00:44;9.15;;;4.28;;
75362;SDS011;64122;51.988;5.892;2022-12-07T02:03:18;9.38;;;4.13;;
75362;SDS011;64122;51.988;5.892;2022-12-07T02:05:50;12.95;;;4.40;;
75362;SDS011;64122;51.988;5.892;2022-12-07T02:08:21;7.90;;;3.20;;
75362;SDS011;64122;51.988;5.892;2022-12-07T02:10:50;11.82;;;4.63;;
75362;SDS011;64122;51.988;5.892;2022-12-07T02:13:25;13.30;;;3.92;;
75362;SDS011;64122;51.988;5.892;2022-12-07T02:16:03;9.13;;;4.18;;
75362;SDS011;64122;51.988;5.892;2022-12-07T02:18:47;8.82;;;3.90;;
75362;SDS011;64122;51.988;5.892;2022-12-07T02:21:27;7.65;;;2.92;;
75362;SDS011;64122;51.988;5.892;2022-12-07T02:24:13;13.57;;;4.30;;
75362;SDS011;64122;51.988;5.892;2022-12-07T02:26:51;10.68;;;3.85;;
75362;SDS011;64122;51.988;5.892;2022-12-07T02:29:35;11.35;;;4.13;;
75362;SDS011;64122;51.988;5.892;2022-12-07T02:32:10;13.75;;;3.78;;
75362;SDS011;64122;51.988;5.892;2022-12-07T02:34:47;7.93;;;3.47;;
75362;SDS011;64122;51.988;5.892;2022-12-07T02:37:20;12.32;;;3.67;;
75362;SDS011;64122;51.988;5.892;2022-12-07T02:39:57;7.88;;;3.40;;
75362;SDS011;64122;51.988;5.892;2022-12-07T02:42:30;10.02;;;3.90;;
75362;SDS011;64122;51.988;5.892;2022-12-07T02:45:07;7.78;;;3.05;;
75362;SDS011;64122;51.988;5.892;2022-12-07T02:47:38;8.52;;;2.97;;
75362;SDS011;64122;51.988;5.892;2022-12-07T02:50:09;9.82;;;3.10;;
75362;SDS011;64122;51.988;5.892;2022-12-07T02:52:39;10.93;;;3.38;;
75362;SDS011;64122;51.988;5.892;2022-12-07T02:55:08;13.50;;;3.50;;
75362;SDS011;64122;51.988;5.892;2022-12-07T02:57:45;11.23;;;3.95;;
75362;SDS011;64122;51.988;5.892;2022-12-07T03:00:25;8.50;;;3.10;;
75362;SDS011;64122;51.988;5.892;2022-12-07T03:02:55;10.93;;;3.83;;
75362;SDS011;64122;51.988;5.892;2022-12-07T03:05:36;11.68;;;3.40;;
75362;SDS011;64122;51.988;5.892;2022-12-07T03:08:21;13.70;;;3.72;;
75362;SDS011;64122;51.988;5.892;2022-12-07T03:10:57;9.52;;;4.30;;
75362;SDS011;64122;51.988;5.892;2022-12-07T03:13:29;8.18;;;2.83;;
75362;SDS011;64122;51.988;5.892;2022-12-07T03:16:07;10.00;;;3.08;;
75362;SDS011;64122;51.988;5.892;2022-12-07T03:18:40;8.77;;;3.22;;
75362;SDS011;64122;51.988;5.892;2022-12-07T03:21:14;6.30;;;2.60;;
75362;SDS011;64122;51.988;5.892;2022-12-07T03:23:47;7.78;;;3.00;;
75362;SDS011;64122;51.988;5.892;2022-12-07T03:26:19;8.18;;;2.65;;
75362;SDS011;64122;51.988;5.892;2022-12-07T03:28:54;9.43;;;2.83;;
75362;SDS011;64122;51.988;5.892;2022-12-07T03:31:29;8.27;;;2.75;;
75362;SDS011;64122;51.988;5.892;2022-12-07T03:34:02;6.68;;;2.70;;
75362;SDS011;64122;51.988;5.892;2022-12-07T03:36:38;7.18;;;2.67;;
75362;SDS011;64122;51.988;5.892;2022-12-07T03:39:13;10.15;;;3.00;;
75362;SDS011;64122;51.988;5.892;2022-12-07T03:41:48;8.57;;;2.58;;
75362;SDS011;64122;51.988;5.892;2022-12-07T03:44:19;7.70;;;2.30;;
75362;SDS011;64122;51.988;5.892;2022-12-07T03:46:54;8.05;;;2.60;;
75362;SDS011;64122;51.988;5.892;2022-12-07T03:49:32;8.73;;;2.25;;
75362;SDS011;64122;51.988;5.892;2022-12-07T03:52:11;9.20;;;2.00;;
75362;SDS011;64122;51.988;5.892;2022-12-07T03:54:47;9.80;;;2.30;;
75362;SDS011;64122;51.988;5.892;2022-12-07T03:57:20;8.60;;;2.50;;
75362;SDS011;64122;51.988;5.892;2022-12-07T03:59:51;6.50;;;1.98;;
75362;SDS011;64122;51.988;5.892;2022-12-07T04:02:26;8.50;;;2.08;;
75362;SDS011;64122;51.988;5.892;2022-12-07T04:04:56;7.75;;;2.38;;
75362;SDS011;64122;51.988;5.892;2022-12-07T04:07:25;11.35;;;2.10;;
75362;SDS011;64122;51.988;5.892;2022-12-07T04:09:55;12.90;;;2.17;;
75362;SDS011;64122;51.988;5.892;2022-12-07T04:12:24;7.70;;;1.98;;
75362;SDS011;64122;51.988;5.892;2022-12-07T04:14:53;8.55;;;2.20;;
75362;SDS011;64122;51.988;5.892;2022-12-07T04:17:22;6.15;;;1.85;;
75362;SDS011;64122;51.988;5.892;2022-12-07T04:19:54;9.45;;;2.20;;
75362;SDS011;64122;51.988;5.892;2022-12-07T04:22:23;6.68;;;1.95;;
75362;SDS011;64122;51.988;5.892;2022-12-07T04:24:52;11.93;;;2.33;;
75362;SDS011;64122;51.988;5.892;2022-12-07T04:27:22;7.55;;;2.40;;
75362;SDS011;64122;51.988;5.892;2022-12-07T04:29:51;9.40;;;2.45;;
75362;SDS011;64122;51.988;5.892;2022-12-07T04:32:21;6.07;;;2.17;;
75362;SDS011;64122;51.988;5.892;2022-12-07T04:34:50;6.63;;;2.08;;
75362;SDS011;64122;51.988;5.892;2022-12-07T04:37:22;5.78;;;2.05;;
75362;SDS011;64122;51.988;5.892;2022-12-07T04:39:51;12.65;;;2.25;;
75362;SDS011;64122;51.988;5.892;2022-12-07T04:42:20;7.88;;;2.22;;
75362;SDS011;64122;51.988;5.892;2022-12-07T04:44:49;7.70;;;2.03;;
75362;SDS011;64122;51.988;5.892;2022-12-07T04:47:19;7.65;;;2.72;;
75362;SDS011;64122;51.988;5.892;2022-12-07T04:49:49;5.13;;;1.95;;
75362;SDS011;64122;51.988;5.892;2022-12-07T04:52:18;9.27;;;2.20;;
75362;SDS011;64122;51.988;5.892;2022-12-07T04:54:50;8.88;;;2.55;;
75362;SDS011;64122;51.988;5.892;2022-12-07T04:57:19;6.47;;;2.40;;
75362;SDS011;64122;51.988;5.892;2022-12-07T04:59:48;9.98;;;2.10;;
75362;SDS011;64122;51.988;5.892;2022-12-07T05:02:17;5.72;;;1.73;;
75362;SDS011;64122;51.988;5.892;2022-12-07T05:04:46;8.18;;;1.95;;
75362;SDS011;64122;51.988;5.892;2022-12-07T05:07:16;8.18;;;1.90;;
75362;SDS011;64122;51.988;5.892;2022-12-07T05:09:45;6.25;;;2.03;;
75362;SDS011;64122;51.988;5.892;2022-12-07T05:12:17;8.80;;;2.10;;
75362;SDS011;64122;51.988;5.892;2022-12-07T05:14:46;10.88;;;2.17;;
75362;SDS011;64122;51.988;5.892;2022-12-07T05:17:15;8.82;;;1.83;;
75362;SDS011;64122;51.988;5.892;2022-12-07T05:19:44;6.40;;;1.90;;
75362;SDS011;64122;51.988;5.892;2022-12-07T05:22:13;12.57;;;2.42;;
75362;SDS011;64122;51.988;5.892;2022-12-07T05:24:42;6.22;;;1.85;;
75362;SDS011;64122;51.988;5.892;2022-12-07T05:27:12;8.73;;;1.90;;
75362;SDS011;64122;51.988;5.892;2022-12-07T05:29:43;6.00;;;1.52;;
75362;SDS011;64122;51.988;5.892;2022-12-07T05:32:13;7.97;;;1.80;;
75362;SDS011;64122;51.988;5.892;2022-12-07T05:34:42;14.30;;;1.90;;
75362;SDS011;64122;51.988;5.892;2022-12-07T05:37:11;7.63;;;1.77;;
75362;SDS011;64122;51.988;5.892;2022-12-07T05:39:40;7.60;;;1.90;;
75362;SDS011;64122;51.988;5.892;2022-12-07T05:42:10;7.25;;;2.05;;
75362;SDS011;64122;51.988;5.892;2022-12-07T05:44:40;11.88;;;1.80;;
75362;SDS011;64122;51.988;5.892;2022-12-07T05:47:13;8.55;;;1.92;;
75362;SDS011;64122;51.988;5.892;2022-12-07T05:49:43;10.27;;;1.88;;
75362;SDS011;64122;51.988;5.892;2022-12-07T05:52:12;9.35;;;2.00;;
75362;SDS011;64122;51.988;5.892;2022-12-07T05:54:41;7.78;;;2.30;;
75362;SDS011;64122;51.988;5.892;2022-12-07T05:57:10;8.18;;;1.92;;
75362;SDS011;64122;51.988;5.892;2022-12-07T05:59:39;8.18;;;1.80;;
75362;SDS011;64122;51.988;5.892;2022-12-07T06:02:07;8.55;;;1.85;;
75362;SDS011;64122;51.988;5.892;2022-12-07T06:04:41;5.93;;;1.67;;
75362;SDS011;64122;51.988;5.892;2022-12-07T06:07:12;7.45;;;2.05;;
75362;SDS011;64122;51.988;5.892;2022-12-07T06:09:43;13.18;;;7.05;;
75362;SDS011;64122;51.988;5.892;2022-12-07T06:12:13;7.03;;;2.00;;
75362;SDS011;64122;51.988;5.892;2022-12-07T06:14:54;7.45;;;1.73;;
75362;SDS011;64122;51.988;5.892;2022-12-07T06:17:24;9.32;;;1.75;;
75362;SDS011;64122;51.988;5.892;2022-12-07T06:19:56;6.38;;;1.70;;
75362;SDS011;64122;51.988;5.892;2022-12-07T06:22:25;8.07;;;1.73;;
75362;SDS011;64122;51.988;5.892;2022-12-07T06:24:54;7.45;;;1.83;;
75362;SDS011;64122;51.988;5.892;2022-12-07T06:27:23;8.65;;;1.88;;
75362;SDS011;64122;51.988;5.892;2022-12-07T06:29:52;6.10;;;1.70;;
75362;SDS011;64122;51.988;5.892;2022-12-07T06:32:21;6.70;;;2.08;;
75362;SDS011;64122;51.988;5.892;2022-12-07T06:34:51;7.00;;;1.33;;
75362;SDS011;64122;51.988;5.892;2022-12-07T06:37:23;12.07;;;2.90;;
75362;SDS011;64122;51.988;5.892;2022-12-07T06:39:52;11.48;;;2.38;;
75362;SDS011;64122;51.988;5.892;2022-12-07T06:42:21;8.68;;;2.00;;
75362;SDS011;64122;51.988;5.892;2022-12-07T06:44:51;6.25;;;1.63;;
75362;SDS011;64122;51.988;5.892;2022-12-07T06:47:20;5.30;;;1.80;;
75362;SDS011;64122;51.988;5.892;2022-12-07T06:49:49;6.38;;;1.55;;
75362;SDS011;64122;51.988;5.892;2022-12-07T06:52:18;9.18;;;1.77;;
75362;SDS011;64122;51.988;5.892;2022-12-07T06:54:50;8.70;;;1.45;;
75362;SDS011;64122;51.988;5.892;2022-12-07T06:57:25;7.78;;;1.90;;
75362;SDS011;64122;51.988;5.892;2022-12-07T06:59:55;8.05;;;1.73;;
75362;SDS011;64122;51.988;5.892;2022-12-07T07:02:24;9.48;;;2.15;;
75362;SDS011;64122;51.988;5.892;2022-12-07T07:04:53;9.57;;;1.63;;
75362;SDS011;64122;51.988;5.892;2022-12-07T07:07:23;8.45;;;1.63;;
75362;SDS011;64122;51.988;5.892;2022-12-07T07:09:55;8.45;;;1.88;;
75362;SDS011;64122;51.988;5.892;2022-12-07T07:12:24;8.48;;;1.63;;
75362;SDS011;64122;51.988;5.892;2022-12-07T07:14:53;6.22;;;1.83;;
75362;SDS011;64122;51.988;5.892;2022-12-07T07:17:22;4.43;;;1.30;;
75362;SDS011;64122;51.988;5.892;2022-12-07T07:19:52;7.70;;;1.73;;
75362;SDS011;64122;51.988;5.892;2022-12-07T07:22:21;13.23;;;1.83;;
75362;SDS011;64122;51.988;5.892;2022-12-07T07:24:50;5.32;;;1.40;;
75362;SDS011;64122;51.988;5.892;2022-12-07T07:27:22;7.68;;;1.77;;
75362;SDS011;64122;51.988;5.892;2022-12-07T07:29:51;6.93;;;1.90;;
75362;SDS011;64122;51.988;5.892;2022-12-07T07:32:20;9.00;;;1.88;;
75362;SDS011;64122;51.988;5.892;2022-12-07T07:34:50;7.68;;;2.47;;
75362;SDS011;64122;51.988;5.892;2022-12-07T07:37:19;6.40;;;1.42;;
75362;SDS011;64122;51.988;5.892;2022-12-07T07:39:48;8.60;;;1.60;;
75362;SDS011;64122;51.988;5.892;2022-12-07T07:42:17;7.90;;;1.60;;
75362;SDS011;64122;51.988;5.892;2022-12-07T07:44:49;8.77;;;1.60;;
75362;SDS011;64122;51.988;5.892;2022-12-07T07:47:18;8.82;;;1.40;;
75362;SDS011;64122;51.988;5.892;2022-12-07T07:49:47;6.60;;;2.20;;
75362;SDS011;64122;51.988;5.892;2022-12-07T07:52:17;5.65;;;1.60;;
75362;SDS011;64122;51.988;5.892;2022-12-07T07:54:46;12.45;;;1.67;;
75362;SDS011;64122;51.988;5.892;2022-12-07T07:57:16;8.23;;;1.55;;
75362;SDS011;64122;51.988;5.892;2022-12-07T07:59:45;6.43;;;1.67;;
75362;SDS011;64122;51.988;5.892;2022-12-07T08:02:18;8.00;;;3.10;;
75362;SDS011;64122;51.988;5.892;2022-12-07T08:04:48;9.00;;;1.80;;
75362;SDS011;64122;51.988;5.892;2022-12-07T08:07:17;6.85;;;1.60;;
75362;SDS011;64122;51.988;5.892;2022-12-07T08:09:46;6.20;;;1.55;;
75362;SDS011;64122;51.988;5.892;2022-12-07T08:12:16;7.60;;;1.92;;
75362;SDS011;64122;51.988;5.892;2022-12-07T08:14:45;9.93;;;1.65;;
75362;SDS011;64122;51.988;5.892;2022-12-07T08:17:17;5.20;;;2.13;;
75362;SDS011;64122;51.988;5.892;2022-12-07T08:19:46;7.25;;;1.75;;
75362;SDS011;64122;51.988;5.892;2022-12-07T08:22:15;7.40;;;1.40;;
75362;SDS011;64122;51.988;5.892;2022-12-07T08:24:44;4.78;;;1.38;;
75362;SDS011;64122;51.988;5.892;2022-12-07T08:27:14;7.50;;;1.90;;
75362;SDS011;64122;51.988;5.892;2022-12-07T08:29:43;8.65;;;1.65;;
75362;SDS011;64122;51.988;5.892;2022-12-07T08:32:12;7.30;;;1.65;;
75362;SDS011;64122;51.988;5.892;2022-12-07T08:34:44;9.52;;;1.70;;
75362;SDS011;64122;51.988;5.892;2022-12-07T08:37:13;6.85;;;1.50;;
75362;SDS011;64122;51.988;5.892;2022-12-07T08:39:42;6.80;;;1.50;;
75362;SDS011;64122;51.988;5.892;2022-12-07T08:42:11;7.50;;;1.63;;
75362;SDS011;64122;51.988;5.892;2022-12-07T08:44:41;8.68;;;2.20;;
75362;SDS011;64122;51.988;5.892;2022-12-07T08:47:10;9.02;;;2.03;;
75362;SDS011;64122;51.988;5.892;2022-12-07T08:49:40;7.85;;;1.50;;
75362;SDS011;64122;51.988;5.892;2022-12-07T08:52:15;6.53;;;1.67;;
75362;SDS011;64122;51.988;5.892;2022-12-07T08:54:44;7.40;;;1.77;;
75362;SDS011;64122;51.988;5.892;2022-12-07T08:57:14;6.28;;;1.60;;
75362;SDS011;64122;51.988;5.892;2022-12-07T08:59:43;7.72;;;1.60;;
75362;SDS011;64122;51.988;5.892;2022-12-07T09:02:12;9.88;;;2.35;;
75362;SDS011;64122;51.988;5.892;2022-12-07T09:04:44;6.60;;;1.70;;
75362;SDS011;64122;51.988;5.892;2022-12-07T09:07:13;6.88;;;1.77;;
75362;SDS011;64122;51.988;5.892;2022-12-07T09:09:42;10.98;;;1.95;;
75362;SDS011;64122;51.988;5.892;2022-12-07T09:12:14;7.53;;;1.60;;
75362;SDS011;64122;51.988;5.892;2022-12-07T09:14:44;8.88;;;1.75;;
75362;SDS011;64122;51.988;5.892;2022-12-07T09:17:13;9.05;;;2.03;;
75362;SDS011;64122;51.988;5.892;2022-12-07T09:19:45;8.82;;;1.90;;
75362;SDS011;64122;51.988;5.892;2022-12-07T09:22:14;6.20;;;1.70;;
75362;SDS011;64122;51.988;5.892;2022-12-07T09:24:43;7.75;;;2.13;;
75362;SDS011;64122;51.988;5.892;2022-12-07T09:27:13;5.57;;;1.60;;
75362;SDS011;64122;51.988;5.892;2022-12-07T09:29:43;7.68;;;1.90;;
75362;SDS011;64122;51.988;5.892;2022-12-07T09:32:12;6.75;;;2.05;;
75362;SDS011;64122;51.988;5.892;2022-12-07T09:34:42;8.40;;;2.05;;
75362;SDS011;64122;51.988;5.892;2022-12-07T09:37:13;9.40;;;1.92;;
75362;SDS011;64122;51.988;5.892;2022-12-07T09:39:43;7.95;;;1.48;;
75362;SDS011;64122;51.988;5.892;2022-12-07T09:42:15;6.78;;;1.48;;
75362;SDS011;64122;51.988;5.892;2022-12-07T09:44:54;7.90;;;2.67;;
75362;SDS011;64122;51.988;5.892;2022-12-07T09:47:24;7.30;;;1.73;;
75362;SDS011;64122;51.988;5.892;2022-12-07T09:49:58;6.43;;;1.55;;
75362;SDS011;64122;51.988;5.892;2022-12-07T09:52:32;11.20;;;3.65;;
75362;SDS011;64122;51.988;5.892;2022-12-07T09:55:02;10.15;;;1.77;;
75362;SDS011;64122;51.988;5.892;2022-12-07T09:57:32;13.38;;;1.88;;
75362;SDS011;64122;51.988;5.892;2022-12-07T10:00:04;9.48;;;1.75;;
75362;SDS011;64122;51.988;5.892;2022-12-07T10:02:39;10.43;;;2.00;;
75362;SDS011;64122;51.988;5.892;2022-12-07T10:05:14;7.35;;;2.08;;
75362;SDS011;64122;51.988;5.892;2022-12-07T10:07:45;9.13;;;2.28;;
75362;SDS011;64122;51.988;5.892;2022-12-07T10:10:15;8.73;;;2.67;;
75362;SDS011;64122;51.988;5.892;2022-12-07T10:12:52;7.28;;;2.13;;
75362;SDS011;64122;51.988;5.892;2022-12-07T10:15:23;10.48;;;2.28;;
75362;SDS011;64122;51.988;5.892;2022-12-07T10:18:16;7.55;;;2.22;;
75362;SDS011;64122;51.988;5.892;2022-12-07T10:20:59;5.68;;;1.58;;
75362;SDS011;64122;51.988;5.892;2022-12-07T10:23:30;7.28;;;1.58;;
75362;SDS011;64122;51.988;5.892;2022-12-07T10:25:59;8.23;;;1.80;;
75362;SDS011;64122;51.988;5.892;2022-12-07T10:28:47;7.75;;;1.60;;
75362;SDS011;64122;51.988;5.892;2022-12-07T10:31:18;6.28;;;1.60;;
75362;SDS011;64122;51.988;5.892;2022-12-07T10:33:49;9.15;;;1.88;;
75362;SDS011;64122;51.988;5.892;2022-12-07T10:36:26;7.30;;;1.50;;
75362;SDS011;64122;51.988;5.892;2022-12-07T10:39:03;10.88;;;1.80;;
75362;SDS011;64122;51.988;5.892;2022-12-07T10:41:51;7.00;;;1.50;;
75362;SDS011;64122;51.988;5.892;2022-12-07T10:44:23;9.82;;;2.05;;
75362;SDS011;64122;51.988;5.892;2022-12-07T10:47:09;7.00;;;1.33;;
75362;SDS011;64122;51.988;5.892;2022-12-07T10:50:02;7.78;;;2.00;;
75362;SDS011;64122;51.988;5.892;2022-12-07T10:52:53;5.95;;;1.40;;
75362;SDS011;64122;51.988;5.892;2022-12-07T10:55:39;4.60;;;1.48;;
75362;SDS011;64122;51.988;5.892;2022-12-07T10:58:23;8.07;;;1.65;;
75362;SDS011;64122;51.988;5.892;2022-12-07T11:01:07;5.43;;;1.60;;
75362;SDS011;64122;51.988;5.892;2022-12-07T11:03:44;5.78;;;1.40;;
75362;SDS011;64122;51.988;5.892;2022-12-07T11:06:26;9.38;;;1.60;;
75362;SDS011;64122;51.988;5.892;2022-12-07T11:09:04;6.40;;;1.20;;
75362;SDS011;64122;51.988;5.892;2022-12-07T11:11:52;4.18;;;1.20;;
75362;SDS011;64122;51.988;5.892;2022-12-07T11:14:35;5.10;;;1.38;;
75362;SDS011;64122;51.988;5.892;2022-12-07T11:17:13;6.00;;;1.83;;
75362;SDS011;64122;51.988;5.892;2022-12-07T11:19:50;16.85;;;2.13;;
75362;SDS011;64122;51.988;5.892;2022-12-07T11:22:33;7.97;;;1.42;;
75362;SDS011;64122;51.988;5.892;2022-12-07T11:25:16;9.30;;;1.50;;
75362;SDS011;64122;51.988;5.892;2022-12-07T11:27:55;10.80;;;1.88;;
75362;SDS011;64122;51.988;5.892;2022-12-07T11:30:42;6.53;;;1.27;;
75362;SDS011;64122;51.988;5.892;2022-12-07T11:33:19;10.70;;;1.65;;
75362;SDS011;64122;51.988;5.892;2022-12-07T11:35:57;7.22;;;1.65;;
75362;SDS011;64122;51.988;5.892;2022-12-07T11:38:35;9.70;;;2.00;;
75362;SDS011;64122;51.988;5.892;2022-12-07T11:43:53;8.68;;;2.05;;
75362;SDS011;64122;51.988;5.892;2022-12-07T11:49:04;5.55;;;1.20;;
75362;SDS011;64122;51.988;5.892;2022-12-07T11:51:38;9.32;;;1.70;;
75362;SDS011;64122;51.988;5.892;2022-12-07T11:54:11;11.07;;;1.58;;
75362;SDS011;64122;51.988;5.892;2022-12-07T11:56:48;4.68;;;1.42;;
75362;SDS011;64122;51.988;5.892;2022-12-07T11:59:21;8.40;;;1.55;;
75362;SDS011;64122;51.988;5.892;2022-12-07T12:01:57;7.25;;;1.63;;
75362;SDS011;64122;51.988;5.892;2022-12-07T12:04:34;7.75;;;1.20;;
75362;SDS011;64122;51.988;5.892;2022-12-07T12:07:19;8.70;;;1.67;;
75362;SDS011;64122;51.988;5.892;2022-12-07T12:12:37;7.32;;;1.70;;
75362;SDS011;64122;51.988;5.892;2022-12-07T12:15:23;7.32;;;1.42;;
75362;SDS011;64122;51.988;5.892;2022-12-07T12:18:06;9.85;;;1.50;;
75362;SDS011;64122;51.988;5.892;2022-12-07T12:20:53;10.70;;;1.75;;
75362;SDS011;64122;51.988;5.892;2022-12-07T12:23:27;7.85;;;1.98;;
75362;SDS011;64122;51.988;5.892;2022-12-07T12:26:05;7.03;;;1.50;;
75362;SDS011;64122;51.988;5.892;2022-12-07T12:28:39;8.63;;;1.88;;
75362;SDS011;64122;51.988;5.892;2022-12-07T12:31:29;5.95;;;1.52;;
75362;SDS011;64122;51.988;5.892;2022-12-07T12:34:03;5.35;;;1.30;;
75362;SDS011;64122;51.988;5.892;2022-12-07T12:36:56;5.35;;;1.63;;
75362;SDS011;64122;51.988;5.892;2022-12-07T12:39:26;8.73;;;1.58;;
75362;SDS011;64122;51.988;5.892;2022-12-07T12:41:56;6.13;;;1.70;;
75362;SDS011;64122;51.988;5.892;2022-12-07T12:47:38;7.82;;;1.80;;
75362;SDS011;64122;51.988;5.892;2022-12-07T12:50:17;7.55;;;1.98;;
75362;SDS011;64122;51.988;5.892;2022-12-07T12:52:52;12.27;;;1.80;;
75362;SDS011;64122;51.988;5.892;2022-12-07T12:55:28;7.47;;;1.55;;
75362;SDS011;64122;51.988;5.892;2022-12-07T12:58:33;5.00;;;1.42;;
75362;SDS011;64122;51.988;5.892;2022-12-07T13:04:14;8.98;;;1.27;;
75362;SDS011;64122;51.988;5.892;2022-12-07T13:06:56;6.18;;;1.40;;
75362;SDS011;64122;51.988;5.892;2022-12-07T13:09:29;9.10;;;1.55;;
75362;SDS011;64122;51.988;5.892;2022-12-07T13:12:02;7.97;;;1.65;;
75362;SDS011;64122;51.988;5.892;2022-12-07T13:23:27;7.30;;;1.48;;
75362;SDS011;64122;51.988;5.892;2022-12-07T13:26:09;10.30;;;1.92;;
75362;SDS011;64122;51.988;5.892;2022-12-07T13:28:46;8.57;;;1.80;;
75362;SDS011;64122;51.988;5.892;2022-12-07T13:34:02;8.70;;;1.58;;
75362;SDS011;64122;51.988;5.892;2022-12-07T13:36:33;9.02;;;1.40;;
75362;SDS011;64122;51.988;5.892;2022-12-07T13:39:17;12.95;;;3.00;;
75362;SDS011;64122;51.988;5.892;2022-12-07T13:41:52;7.38;;;1.50;;
75362;SDS011;64122;51.988;5.892;2022-12-07T13:44:23;6.30;;;1.60;;
75362;SDS011;64122;51.988;5.892;2022-12-07T13:46:57;5.45;;;1.05;;
75362;SDS011;64122;51.988;5.892;2022-12-07T13:49:31;8.15;;;1.35;;
75362;SDS011;64122;51.988;5.892;2022-12-07T13:54:47;6.40;;;1.55;;
75362;SDS011;64122;51.988;5.892;2022-12-07T13:57:20;7.97;;;1.60;;
75362;SDS011;64122;51.988;5.892;2022-12-07T13:59:50;5.55;;;1.40;;
75362;SDS011;64122;51.988;5.892;2022-12-07T14:02:21;7.15;;;1.75;;
75362;SDS011;64122;51.988;5.892;2022-12-07T14:05:05;9.27;;;1.88;;
75362;SDS011;64122;51.988;5.892;2022-12-07T14:07:47;7.22;;;1.50;;
75362;SDS011;64122;51.988;5.892;2022-12-07T14:10:25;9.27;;;1.55;;
75362;SDS011;64122;51.988;5.892;2022-12-07T14:12:58;7.05;;;1.33;;
75362;SDS011;64122;51.988;5.892;2022-12-07T14:15:30;3.88;;;0.68;;
75362;SDS011;64122;51.988;5.892;2022-12-07T14:18:01;4.95;;;1.02;;
75362;SDS011;64122;51.988;5.892;2022-12-07T14:20:32;5.68;;;1.08;;
75362;SDS011;64122;51.988;5.892;2022-12-07T14:23:03;6.07;;;1.25;;
75362;SDS011;64122;51.988;5.892;2022-12-07T14:25:47;3.67;;;0.90;;
75362;SDS011;64122;51.988;5.892;2022-12-07T14:28:27;5.82;;;1.75;;
75362;SDS011;64122;51.988;5.892;2022-12-07T14:30:58;6.03;;;1.00;;
75362;SDS011;64122;51.988;5.892;2022-12-07T14:33:28;5.65;;;0.98;;
75362;SDS011;64122;51.988;5.892;2022-12-07T14:35:57;6.03;;;1.13;;
75362;SDS011;64122;51.988;5.892;2022-12-07T14:38:27;5.88;;;1.33;;
75362;SDS011;64122;51.988;5.892;2022-12-07T14:40:56;7.22;;;1.10;;
75362;SDS011;64122;51.988;5.892;2022-12-07T14:43:49;4.82;;;1.02;;
75362;SDS011;64122;51.988;5.892;2022-12-07T14:46:18;5.82;;;1.10;;
75362;SDS011;64122;51.988;5.892;2022-12-07T14:48:47;4.85;;;1.10;;
75362;SDS011;64122;51.988;5.892;2022-12-07T14:51:16;3.35;;;1.00;;
75362;SDS011;64122;51.988;5.892;2022-12-07T14:53:46;7.97;;;1.70;;
75362;SDS011;64122;51.988;5.892;2022-12-07T14:56:18;8.68;;;2.30;;
75362;SDS011;64122;51.988;5.892;2022-12-07T14:58:50;11.27;;;2.40;;
75362;SDS011;64122;51.988;5.892;2022-12-07T15:01:19;10.52;;;2.65;;
75362;SDS011;64122;51.988;5.892;2022-12-07T15:03:49;7.32;;;1.70;;
75362;SDS011;64122;51.988;5.892;2022-12-07T15:06:18;5.18;;;1.30;;
75362;SDS011;64122;51.988;5.892;2022-12-07T15:08:47;4.65;;;1.27;;
75362;SDS011;64122;51.988;5.892;2022-12-07T15:11:17;6.90;;;1.20;;
75362;SDS011;64122;51.988;5.892;2022-12-07T15:13:46;5.00;;;1.50;;
75362;SDS011;64122;51.988;5.892;2022-12-07T15:16:31;6.28;;;1.73;;
75362;SDS011;64122;51.988;5.892;2022-12-07T15:19:00;6.85;;;1.50;;
75362;SDS011;64122;51.988;5.892;2022-12-07T15:21:30;7.25;;;1.23;;
75362;SDS011;64122;51.988;5.892;2022-12-07T15:23:59;6.32;;;1.42;;
75362;SDS011;64122;51.988;5.892;2022-12-07T15:26:28;5.82;;;1.60;;
75362;SDS011;64122;51.988;5.892;2022-12-07T15:29:00;6.20;;;1.40;;
75362;SDS011;64122;51.988;5.892;2022-12-07T15:31:29;5.35;;;1.60;;
75362;SDS011;64122;51.988;5.892;2022-12-07T15:33:58;6.93;;;2.10;;
75362;SDS011;64122;51.988;5.892;2022-12-07T15:36:28;5.43;;;1.60;;
75362;SDS011;64122;51.988;5.892;2022-12-07T15:38:59;7.30;;;1.77;;
75362;SDS011;64122;51.988;5.892;2022-12-07T15:41:29;7.35;;;2.25;;
75362;SDS011;64122;51.988;5.892;2022-12-07T15:44:01;6.50;;;2.10;;
75362;SDS011;64122;51.988;5.892;2022-12-07T15:46:43;8.80;;;1.73;;
75362;SDS011;64122;51.988;5.892;2022-12-07T15:49:14;11.25;;;3.63;;